Topton, Pennsylvania
Current Conditions -  °F | °C
As of 9:35 AM on Thursday 23 Oct 2014 (Local Time) from KXLL Reporting Station
Overcast Overcast  
Wind Chill: 50°   Ceiling: 4200
Heat Index: 50°   Visibility: 10mi
Dew Point: 43°   Wind: 7mph
Humidity: 76%   Direction: 330°NNW
Pressure: 29.82"   Gusts: 18mph
Location:  40.5°N, 75.7°W
Report Text: KXLL 231335Z AUTO 33006G16KT 10SM SCT024 OVC042 10/06 A2982 RMK AO2
Loading
Personal Weather Stations






























Interactive Weather Map
Tropical Storm Tracking
New forecast layout! Learn more

10-Day Weather Forecast

Advertisements
Track Severe Weather on mobile